Time;durP1;ratioP1;P1;durP2;ratioP2;P2;SDS_P1;SDS_P2;PMS_P1;PMS_P2;Temp;Humidity;BMP_temperature;BMP_pressure;BME280_temperature;BME280_humidity;BME280_pressure;Samples;Min_cycle;Max_cycle;Signal;HPM_P1;HPM_P2
2023/08/20 00:02:19;;;;;;;;;;;;;;;22.51;64.29;100993.22;4959840;28;9018;-70
2023/08/20 00:04:46;;;;;;;;;;;;;;;22.53;64.42;101000.22;4946190;28;7215;-68
2023/08/20 00:07:12;;;;;;;;;;;;;;;22.56;64.52;101005.47;4946813;28;6792;-69
2023/08/20 00:09:37;;;;;;;;;;;;;;;22.61;64.76;100998.53;4960839;28;7245;-70
2023/08/20 00:12:05;;;;;;;;;;;;;;;22.69;64.64;100995.97;4960335;28;6852;-70
2023/08/20 00:14:54;;;;;;;;;;;;;;;22.75;64.80;100998.66;4941590;28;7150;-70
2023/08/20 00:17:20;;;;;;;;;;;;;;;22.79;64.54;101006.50;4953212;28;6904;-70
2023/08/20 00:19:46;;;;;;;;;;;;;;;22.80;64.57;101014.34;4947488;28;6811;-69
2023/08/20 00:22:11;;;;;;;;;;;;;;;22.80;64.11;101016.97;4964895;28;6792;-69
2023/08/20 00:24:37;;;;;;;;;;;;;;;22.78;63.87;101008.22;4961853;28;6979;-70
2023/08/20 00:27:03;;;;;;;;;;;;;;;22.77;64.22;101008.22;4962439;28;6796;-70
2023/08/20 00:29:28;;;;;;;;;;;;;;;22.78;64.23;101013.44;4946258;28;6969;-70
2023/08/20 00:31:54;;;;;;;;;;;;;;;22.78;64.56;101008.22;4942897;28;6879;-69
2023/08/20 00:34:19;;;;;;;;;;;;;;;22.78;64.09;101008.22;4942973;28;7040;-70
2023/08/20 00:36:45;;;;;;;;;;;;;;;22.75;63.97;101009.09;4944203;28;6868;-69
2023/08/20 00:39:11;;;;;;;;;;;;;;;22.75;64.87;100993.41;4965904;28;6796;-69
2023/08/20 00:41:37;;;;;;;;;;;;;;;22.72;64.67;100998.59;4945450;28;6940;-69
2023/08/20 00:44:03;;;;;;;;;;;;;;;22.73;65.06;100999.50;4960094;28;6775;-69
2023/08/20 00:46:29;;;;;;;;;;;;;;;22.72;64.96;100990.75;4938252;28;8527;-69
2023/08/20 00:48:55;;;;;;;;;;;;;;;22.70;65.00;100989.03;4946566;28;6990;-69
2023/08/20 00:51:22;;;;;;;;;;;;;;;22.71;64.91;101001.22;4948115;28;6803;-69
2023/08/20 00:53:48;;;;;;;;;;;;;;;22.70;65.10;101004.72;4947302;28;7161;-70
2023/08/20 00:56:14;;;;;;;;;;;;;;;22.70;65.20;101002.09;4946654;28;7079;-70
2023/08/20 00:58:40;;;;;;;;;;;;;;;22.71;64.74;101014.28;4944955;28;7270;-70
2023/08/20 01:01:05;;;;;;;;;;;;;;;22.72;64.92;101008.19;4959558;28;6983;-70
2023/08/20 01:03:31;;;;;;;;;;;;;;;22.70;64.54;101007.31;4944760;28;7142;-70
2023/08/20 01:06:18;;;;;;;;;;;;;;;22.71;64.60;101007.31;4946589;28;7164;-69
2023/08/20 01:08:50;;;;;;;;;;;;;;;22.69;64.16;101003.81;4942300;28;7362;-69
2023/08/20 01:11:22;;;;;;;;;;;;;;;22.67;64.17;100996.81;4963487;28;6812;-69
2023/08/20 01:13:47;;;;;;;;;;;;;;;22.63;64.25;101005.50;4941061;28;7289;-70
2023/08/20 01:16:13;;;;;;;;;;;;;;;22.61;64.13;101003.78;4961528;28;6962;-70
2023/08/20 01:18:38;;;;;;;;;;;;;;;22.58;64.27;101005.47;4958311;28;7145;-70
2023/08/20 01:21:17;;;;;;;;;;;;;;;22.57;64.44;101001.97;4962077;28;6935;-69
2023/08/20 01:24:02;;;;;;;;;;;;;;;22.57;64.64;101006.34;4976916;28;6980;-69
2023/08/20 01:26:55;;;;;;;;;;;;;;;22.54;64.45;101012.41;4944031;28;6884;-70
2023/08/20 01:29:21;;;;;;;;;;;;;;;22.52;64.25;101014.16;4960622;28;7134;-70
2023/08/20 01:31:47;;;;;;;;;;;;;;;22.53;64.68;101018.50;4959279;28;7109;-69
2023/08/20 01:34:13;;;;;;;;;;;;;;;22.54;64.89;101015.03;4961152;28;6776;-69
2023/08/20 01:36:38;;;;;;;;;;;;;;;22.58;64.97;101016.78;4944337;28;6784;-69
2023/08/20 01:39:04;;;;;;;;;;;;;;;22.64;65.50;101022.94;4962849;28;6796;-69
2023/08/20 01:41:30;;;;;;;;;;;;;;;22.71;64.63;101025.59;4964469;28;6816;-69
2023/08/20 01:43:56;;;;;;;;;;;;;;;22.80;65.10;101034.38;4961231;28;6807;-70
2023/08/20 01:46:21;;;;;;;;;;;;;;;22.88;65.50;101036.16;4960286;28;6951;-70
2023/08/20 01:48:47;;;;;;;;;;;;;;;22.95;65.42;101029.25;4942096;28;7271;-70
2023/08/20 01:51:12;;;;;;;;;;;;;;;23.04;64.72;101036.28;4961347;28;6804;-70
2023/08/20 01:53:38;;;;;;;;;;;;;;;23.09;65.10;101042.44;4962788;28;6788;-69
2023/08/20 01:56:04;;;;;;;;;;;;;;;23.15;65.14;101045.06;4961653;28;6800;-69
2023/08/20 01:58:30;;;;;;;;;;;;;;;23.23;65.18;101045.13;4958243;28;7213;-70
2023/08/20 02:00:56;;;;;;;;;;;;;;;23.30;65.21;101056.53;4962064;28;6827;-69
2023/08/20 02:03:21;;;;;;;;;;;;;;;23.35;64.49;101052.16;4940447;28;6792;-70
2023/08/20 02:05:47;;;;;;;;;;;;;;;23.39;64.93;101063.53;4964186;28;6783;-70
2023/08/20 02:08:12;;;;;;;;;;;;;;;23.42;65.37;101067.03;4944460;28;6835;-69
2023/08/20 02:10:38;;;;;;;;;;;;;;;23.46;64.94;101067.03;4980617;28;7100;-69
2023/08/20 02:13:04;;;;;;;;;;;;;;;23.50;65.12;101060.97;4940434;28;6796;-70
2023/08/20 02:15:29;;;;;;;;;;;;;;;23.51;64.95;101055.72;4962591;28;6804;-69
2023/08/20 02:17:56;;;;;;;;;;;;;;;23.52;65.06;101057.50;4958759;28;7039;-72
2023/08/20 02:20:22;;;;;;;;;;;;;;;23.53;64.77;101055.75;4977666;28;6799;-73
2023/08/20 02:22:48;;;;;;;;;;;;;;;23.52;64.62;101054.00;4946562;28;6815;-70
2023/08/20 02:25:13;;;;;;;;;;;;;;;23.49;64.30;101052.25;4947744;28;6974;-70
2023/08/20 02:27:39;;;;;;;;;;;;;;;23.46;64.42;101060.09;4928576;28;6964;-69
2023/08/20 02:30:05;;;;;;;;;;;;;;;23.42;64.94;101061.81;4960110;28;6808;-69
2023/08/20 02:32:31;;;;;;;;;;;;;;;23.41;64.76;101065.28;4957681;28;6868;-70
2023/08/20 02:34:57;;;;;;;;;;;;;;;23.39;64.73;101067.03;4963171;28;6807;-69
2023/08/20 02:37:22;;;;;;;;;;;;;;;23.39;64.72;101066.16;4960893;28;6879;-70
2023/08/20 02:39:48;;;;;;;;;;;;;;;23.38;64.41;101065.28;4943045;28;6799;-70
2023/08/20 02:42:13;;;;;;;;;;;;;;;23.38;64.66;101064.41;4944603;28;7067;-69
2023/08/20 02:44:39;;;;;;;;;;;;;;;23.39;64.65;101066.16;4961101;28;6795;-69
2023/08/20 02:47:04;;;;;;;;;;;;;;;23.40;64.12;101067.88;4959638;28;6799;-70
2023/08/20 02:49:30;;;;;;;;;;;;;;;23.42;64.89;101072.25;4960426;28;7954;-69
2023/08/20 02:51:55;;;;;;;;;;;;;;;23.45;64.57;101068.81;4943144;28;6800;-69
2023/08/20 02:54:21;;;;;;;;;;;;;;;23.46;64.86;101072.28;4961426;28;6875;-69
2023/08/20 02:56:46;;;;;;;;;;;;;;;23.44;64.74;101075.75;4945741;28;7059;-68
2023/08/20 02:59:12;;;;;;;;;;;;;;;23.43;64.53;101078.38;4960507;28;7007;-69
2023/08/20 03:01:37;;;;;;;;;;;;;;;23.40;64.61;101081.84;4968609;28;7037;-68
2023/08/20 03:04:03;;;;;;;;;;;;;;;23.37;64.43;101087.06;4946597;28;6907;-70
2023/08/20 03:06:29;;;;;;;;;;;;;;;23.33;63.89;101085.28;4964783;28;7125;-70
2023/08/20 03:08:55;;;;;;;;;;;;;;;23.30;64.63;101088.75;4975707;28;8105;-70
2023/08/20 03:11:20;;;;;;;;;;;;;;;23.28;64.50;101089.63;4956519;28;7171;-71
2023/08/20 03:13:45;;;;;;;;;;;;;;;23.27;64.56;101083.50;4953659;28;7526;-69
2023/08/20 03:16:11;;;;;;;;;;;;;;;23.28;64.38;101087.03;4957457;28;6787;-69
2023/08/20 03:18:36;;;;;;;;;;;;;;;23.27;64.76;101090.44;4977005;28;7089;-70
2023/08/20 03:21:02;;;;;;;;;;;;;;;23.26;64.43;101081.75;4940363;28;7095;-68
2023/08/20 03:23:29;;;;;;;;;;;;;;;23.26;64.64;101080.84;4965485;28;6795;-69
2023/08/20 03:25:58;;;;;;;;;;;;;;;23.24;64.36;101077.34;4947173;28;7036;-69
2023/08/20 03:28:23;;;;;;;;;;;;;;;23.17;64.99;101085.16;4965257;28;6797;-70
2023/08/20 03:30:49;;;;;;;;;;;;;;;23.10;64.31;101083.38;4964495;28;6806;-68
2023/08/20 03:33:15;;;;;;;;;;;;;;;23.06;64.42;101088.56;4962400;28;6780;-69
2023/08/20 03:35:41;;;;;;;;;;;;;;;23.01;64.70;101089.41;4947465;28;6974;-68
2023/08/20 03:38:06;;;;;;;;;;;;;;;22.96;64.14;101078.06;4966482;28;6792;-69
2023/08/20 03:40:32;;;;;;;;;;;;;;;22.92;64.93;101086.72;4942185;28;7826;-68
2023/08/20 03:42:57;;;;;;;;;;;;;;;22.88;64.76;101080.59;4965299;28;6784;-70
2023/08/20 03:45:22;;;;;;;;;;;;;;;22.86;64.42;101076.25;4942970;28;6783;-69
2023/08/20 03:47:48;;;;;;;;;;;;;;;22.83;64.49;101087.53;4962863;28;6876;-69
2023/08/20 03:50:14;;;;;;;;;;;;;;;22.79;64.30;101080.53;4946207;28;6958;-70
2023/08/20 03:52:39;;;;;;;;;;;;;;;22.75;64.28;101079.66;4964781;28;7022;-71
2023/08/20 03:55:05;;;;;;;;;;;;;;;22.72;64.69;101094.41;4949813;28;6961;-68
2023/08/20 03:57:31;;;;;;;;;;;;;;;22.67;64.29;101093.47;4947017;28;7027;-69
2023/08/20 03:59:56;;;;;;;;;;;;;;;22.60;64.70;101095.16;4943404;28;6847;-69
2023/08/20 04:02:23;;;;;;;;;;;;;;;22.56;65.10;101094.25;4958968;28;7098;-70
2023/08/20 04:04:49;;;;;;;;;;;;;;;22.52;64.44;101089.88;4949680;28;6796;-69
2023/08/20 04:07:14;;;;;;;;;;;;;;;22.48;64.68;101086.34;4960183;28;6808;-68
2023/08/20 04:09:41;;;;;;;;;;;;;;;22.43;64.50;101089.75;4944897;28;7282;-70
2023/08/20 04:12:06;;;;;;;;;;;;;;;22.42;65.04;101095.84;4947723;28;7412;-70
2023/08/20 04:14:32;;;;;;;;;;;;;;;22.36;65.02;101096.66;4938029;28;7409;-69
2023/08/20 04:16:57;;;;;;;;;;;;;;;22.32;64.62;101085.31;4940327;28;7238;-69
2023/08/20 04:19:23;;;;;;;;;;;;;;;22.27;64.94;101097.44;4965597;28;7294;-69
2023/08/20 04:21:48;;;;;;;;;;;;;;;22.24;64.65;101097.41;4947089;28;6795;-71
2023/08/20 04:24:14;;;;;;;;;;;;;;;22.19;64.54;101093.84;4944203;28;7222;-70
2023/08/20 04:26:40;;;;;;;;;;;;;;;22.15;64.62;101097.31;4942495;28;7086;-72
2023/08/20 04:29:05;;;;;;;;;;;;;;;22.09;64.43;101108.56;4964131;28;9380;-71
2023/08/20 04:31:31;;;;;;;;;;;;;;;22.05;64.68;101105.03;4955699;28;6972;-71
2023/08/20 04:33:56;;;;;;;;;;;;;;;22.01;64.96;101105.84;4952795;28;7135;-71
2023/08/20 04:36:22;;;;;;;;;;;;;;;21.99;64.76;101109.31;4940274;28;6977;-70
2023/08/20 04:38:47;;;;;;;;;;;;;;;21.97;65.13;101111.00;4943475;28;6955;-71
2023/08/20 04:41:13;;;;;;;;;;;;;;;21.93;65.27;101115.34;4963294;28;7233;-72
2023/08/20 04:43:38;;;;;;;;;;;;;;;21.90;65.15;101117.88;4942980;28;6927;-71
2023/08/20 04:46:03;;;;;;;;;;;;;;;21.88;65.18;101109.16;4939418;28;6788;-72
2023/08/20 04:48:29;;;;;;;;;;;;;;;21.85;65.25;101109.13;4960027;28;6803;-72
2023/08/20 04:50:55;;;;;;;;;;;;;;;21.82;65.02;101109.97;4959266;28;6879;-74
2023/08/20 04:53:20;;;;;;;;;;;;;;;21.81;65.26;101129.09;4957937;28;6977;-74
2023/08/20 04:55:45;;;;;;;;;;;;;;;21.81;65.10;101122.97;4960164;28;6784;-74
2023/08/20 04:58:11;;;;;;;;;;;;;;;21.80;65.53;101126.44;4941858;28;7011;-74
2023/08/20 05:00:36;;;;;;;;;;;;;;;21.82;65.50;101132.56;4957402;28;6784;-74
2023/08/20 05:03:02;;;;;;;;;;;;;;;21.83;65.54;101134.34;4947458;28;6780;-74
2023/08/20 05:05:28;;;;;;;;;;;;;;;21.84;65.89;101143.91;4963054;28;6780;-73
2023/08/20 05:07:53;;;;;;;;;;;;;;;21.87;66.02;101144.81;4958876;28;7076;-73
2023/08/20 05:10:18;;;;;;;;;;;;;;;21.91;66.14;101141.41;4940464;28;6938;-74
2023/08/20 05:12:44;;;;;;;;;;;;;;;21.94;66.14;101137.97;4958674;28;6796;-73
2023/08/20 05:15:09;;;;;;;;;;;;;;;22.01;66.45;101131.06;4956051;28;6855;-74
2023/08/20 05:17:35;;;;;;;;;;;;;;;22.09;66.46;101134.66;4961016;28;6979;-73
2023/08/20 05:20:00;;;;;;;;;;;;;;;22.16;66.23;101133.88;4977960;28;6852;-74
2023/08/20 05:22:26;;;;;;;;;;;;;;;22.22;66.46;101140.91;4943631;28;6873;-74
2023/08/20 05:24:51;;;;;;;;;;;;;;;22.24;66.70;101133.97;4954442;28;6796;-75
2023/08/20 05:27:17;;;;;;;;;;;;;;;22.31;66.71;101134.91;4946480;28;6967;-74
2023/08/20 05:29:43;;;;;;;;;;;;;;;22.36;66.79;101134.94;4960534;28;6776;-75
2023/08/20 05:32:09;;;;;;;;;;;;;;;22.41;66.76;101131.53;4960218;28;6856;-73
2023/08/20 05:34:35;;;;;;;;;;;;;;;22.47;66.62;101133.31;4942502;28;6956;-74
2023/08/20 05:37:00;;;;;;;;;;;;;;;22.53;66.60;101141.25;4961307;28;7106;-71
2023/08/20 05:39:26;;;;;;;;;;;;;;;22.59;67.25;101143.91;4959691;28;7355;-74
2023/08/20 05:41:55;;;;;;;;;;;;;;;22.69;66.94;101151.84;4956188;28;6879;-73
2023/08/20 05:44:21;;;;;;;;;;;;;;;22.77;66.75;101155.41;4962138;28;6827;-73
2023/08/20 05:46:47;;;;;;;;;;;;;;;22.86;66.62;101154.63;4943907;28;6863;-74
2023/08/20 05:49:13;;;;;;;;;;;;;;;22.95;66.52;101159.06;4957519;28;7243;-73
2023/08/20 05:51:39;;;;;;;;;;;;;;;23.01;66.75;101149.53;4947204;28;6915;-74
2023/08/20 05:54:04;;;;;;;;;;;;;;;23.09;66.94;101154.84;4962468;28;6784;-74
2023/08/20 05:56:30;;;;;;;;;;;;;;;23.20;66.22;101151.44;4959322;28;6968;-73
2023/08/20 05:58:56;;;;;;;;;;;;;;;23.26;66.49;101149.72;4947484;28;6945;-74
2023/08/20 06:01:21;;;;;;;;;;;;;;;23.35;65.93;101154.16;4960477;28;6852;-73
2023/08/20 06:03:46;;;;;;;;;;;;;;;23.41;66.65;101149.00;4936435;28;6950;-74
2023/08/20 06:06:12;;;;;;;;;;;;;;;23.46;66.04;101149.03;4976790;28;7005;-74
2023/08/20 06:08:37;;;;;;;;;;;;;;;23.54;65.93;101149.06;4944357;28;6848;-74
2023/08/20 06:11:03;;;;;;;;;;;;;;;23.61;66.43;101150.84;4961429;28;6780;-73
2023/08/20 06:13:28;;;;;;;;;;;;;;;23.68;65.78;101151.75;4958687;28;6832;-73
2023/08/20 06:15:54;;;;;;;;;;;;;;;23.75;65.65;101143.06;4941800;28;6788;-73
2023/08/20 06:18:19;;;;;;;;;;;;;;;23.82;65.68;101142.25;4955021;28;7083;-72
2023/08/20 06:20:45;;;;;;;;;;;;;;;23.90;65.70;101147.50;4963613;28;6915;-73
2023/08/20 06:23:10;;;;;;;;;;;;;;;23.95;65.23;101144.91;4963800;28;6859;-73
2023/08/20 06:25:36;;;;;;;;;;;;;;;24.00;64.91;101148.44;4945062;28;6970;-71
2023/08/20 06:28:01;;;;;;;;;;;;;;;24.05;65.35;101145.88;4980934;28;6820;-71
2023/08/20 06:30:27;;;;;;;;;;;;;;;24.11;64.74;101149.38;4964386;28;6772;-72
2023/08/20 06:32:52;;;;;;;;;;;;;;;24.18;64.71;101146.75;4958786;28;6930;-74
2023/08/20 06:35:18;;;;;;;;;;;;;;;24.24;64.95;101149.41;4975592;28;6780;-74
2023/08/20 06:37:43;;;;;;;;;;;;;;;24.32;64.63;101150.31;4961488;28;6999;-71
2023/08/20 06:40:09;;;;;;;;;;;;;;;24.39;64.33;101156.44;4934260;28;7330;-74
2023/08/20 06:42:34;;;;;;;;;;;;;;;24.46;64.11;101146.84;4940681;28;6856;-74
2023/08/20 06:45:00;;;;;;;;;;;;;;;24.52;64.75;101147.72;4939717;28;6864;-74
2023/08/20 06:47:26;;;;;;;;;;;;;;;24.60;63.80;101157.34;4943059;28;6824;-73
2023/08/20 06:49:51;;;;;;;;;;;;;;;24.65;64.13;101142.53;4942526;28;7141;-73
2023/08/20 06:52:17;;;;;;;;;;;;;;;24.71;63.64;101149.50;4933576;28;7028;-73
2023/08/20 06:54:44;;;;;;;;;;;;;;;24.77;63.43;101147.75;4941995;28;6872;-73
2023/08/20 06:57:10;;;;;;;;;;;;;;;24.87;63.78;101147.81;4947599;28;7183;-72
2023/08/20 06:59:35;;;;;;;;;;;;;;;24.95;63.12;101153.94;4945123;28;6960;-72
2023/08/20 07:02:01;;;;;;;;;;;;;;;25.01;63.36;101140.81;4964895;28;6856;-72
2023/08/20 07:04:26;;;;;;;;;;;;;;;25.10;62.92;101143.41;4962125;28;7033;-71
2023/08/20 07:06:52;;;;;;;;;;;;;;;25.19;62.82;101142.56;4948551;28;6959;-72
2023/08/20 07:09:17;;;;;;;;;;;;;;;25.27;62.46;101145.16;4964383;28;6979;-71
2023/08/20 07:11:43;;;;;;;;;;;;;;;25.34;62.50;101141.66;4978771;28;8185;-72
2023/08/20 07:14:08;;;;;;;;;;;;;;;25.40;61.75;101143.38;4950579;28;7521;-72
2023/08/20 07:16:34;;;;;;;;;;;;;;;25.44;61.86;101139.00;4947140;28;6787;-73
2023/08/20 07:18:59;;;;;;;;;;;;;;;25.48;61.58;101149.50;4948123;28;6887;-72
2023/08/20 07:21:25;;;;;;;;;;;;;;;25.52;61.34;101142.53;4944416;28;7263;-69
2023/08/20 07:23:50;;;;;;;;;;;;;;;25.58;60.98;101150.38;4943519;28;6984;-70
2023/08/20 07:26:16;;;;;;;;;;;;;;;25.66;60.67;101145.13;4956701;28;6811;-69
2023/08/20 07:28:56;;;;;;;;;;;;;;;25.74;60.74;101147.72;4926405;28;7162;-69
2023/08/20 07:31:27;;;;;;;;;;;;;;;25.82;60.13;101155.56;4936090;28;7331;-69
2023/08/20 07:33:54;;;;;;;;;;;;;;;25.92;60.36;101155.53;4955880;28;7001;-72
2023/08/20 07:36:21;;;;;;;;;;;;;;;26.02;60.13;101158.09;4942042;28;7650;-72
2023/08/20 07:38:47;;;;;;;;;;;;;;;26.07;59.78;101151.94;4978358;28;7293;-72
2023/08/20 07:41:13;;;;;;;;;;;;;;;26.14;59.43;101146.69;4954876;28;6975;-70
2023/08/20 07:43:39;;;;;;;;;;;;;;;26.23;59.35;101153.66;4958572;28;6965;-69
2023/08/20 07:46:06;;;;;;;;;;;;;;;26.32;58.82;101145.72;4956519;28;7445;-70
2023/08/20 07:48:31;;;;;;;;;;;;;;;26.40;58.88;101143.03;4955249;28;6863;-69
2023/08/20 07:50:57;;;;;;;;;;;;;;;26.47;58.48;101150.91;4948584;28;6795;-69
2023/08/20 07:53:23;;;;;;;;;;;;;;;26.57;58.13;101145.59;4948221;28;6999;-69
2023/08/20 07:55:49;;;;;;;;;;;;;;;26.66;57.99;101148.16;4966316;28;7313;-69
2023/08/20 07:58:14;;;;;;;;;;;;;;;26.75;57.96;101144.56;4962523;28;7133;-69
2023/08/20 08:00:40;;;;;;;;;;;;;;;26.83;57.72;101149.75;4962146;28;6890;-69
2023/08/20 08:03:05;;;;;;;;;;;;;;;26.88;57.88;101153.28;4957534;28;8679;-69
2023/08/20 08:05:31;;;;;;;;;;;;;;;26.94;57.23;101154.97;4947810;28;6912;-69
2023/08/20 08:07:57;;;;;;;;;;;;;;;26.99;57.08;101153.16;4968109;28;6858;-69
2023/08/20 08:10:22;;;;;;;;;;;;;;;27.05;56.98;101158.38;4963699;28;6811;-68
2023/08/20 08:12:48;;;;;;;;;;;;;;;27.12;57.06;101153.94;4946098;28;6860;-69
2023/08/20 08:15:13;;;;;;;;;;;;;;;27.20;57.06;101156.50;4959790;28;7130;-69
2023/08/20 08:17:39;;;;;;;;;;;;;;;27.30;56.84;101164.28;4963952;28;6934;-69
2023/08/20 08:20:05;;;;;;;;;;;;;;;27.41;56.53;101158.91;4966391;28;6780;-69
2023/08/20 08:22:31;;;;;;;;;;;;;;;27.54;56.47;101167.59;4963038;28;6816;-69
2023/08/20 08:24:56;;;;;;;;;;;;;;;27.67;56.66;101168.34;4948250;28;6970;-69
2023/08/20 08:27:22;;;;;;;;;;;;;;;27.83;56.36;101171.66;4964950;28;6871;-69
2023/08/20 08:29:47;;;;;;;;;;;;;;;28.04;55.58;101167.00;4945128;28;6855;-68
2023/08/20 08:32:13;;;;;;;;;;;;;;;28.27;55.55;101163.22;4956919;28;6887;-69
2023/08/20 08:34:38;;;;;;;;;;;;;;;28.52;55.70;101168.16;4955265;28;6787;-69
2023/08/20 08:37:04;;;;;;;;;;;;;;;28.74;55.21;101162.53;4942889;28;6856;-70
2023/08/20 08:39:29;;;;;;;;;;;;;;;28.96;54.68;101163.94;4956032;28;7340;-70
2023/08/20 08:42:04;;;;;;;;;;;;;;;29.15;54.42;101174.19;4963781;28;7336;-68
2023/08/20 08:44:34;;;;;;;;;;;;;;;29.28;52.84;101171.34;4957161;28;7350;-69
2023/08/20 08:47:01;;;;;;;;;;;;;;;29.28;52.56;101176.63;4979755;28;6871;-69
2023/08/20 08:49:27;;;;;;;;;;;;;;;29.30;52.53;101167.75;4946489;28;6800;-69
2023/08/20 08:51:56;;;;;;;;;;;;;;;29.37;52.71;101179.09;4954765;28;6803;-69
2023/08/20 08:54:22;;;;;;;;;;;;;;;29.41;51.73;101174.59;4959447;28;6983;-69
2023/08/20 08:56:48;;;;;;;;;;;;;;;29.44;52.05;101175.44;4958599;28;7813;-69
2023/08/20 08:59:14;;;;;;;;;;;;;;;29.55;51.87;101177.03;4943673;28;7121;-69
2023/08/20 09:01:40;;;;;;;;;;;;;;;29.69;51.89;101179.38;4978334;28;6798;-69
2023/08/20 09:04:06;;;;;;;;;;;;;;;29.85;51.76;101178.19;4936704;28;7283;-68
2023/08/20 09:07:04;;;;;;;;;;;;;;;30.01;52.23;101170.81;4961000;28;6799;-69
2023/08/20 09:09:30;;;;;;;;;;;;;;;30.12;51.94;101178.56;4930491;28;7475;-70
2023/08/20 09:11:56;;;;;;;;;;;;;;;30.22;51.41;101173.91;4961730;28;6816;-69
2023/08/20 09:14:29;;;;;;;;;;;;;;;30.38;51.79;101173.56;4941823;28;6965;-70
2023/08/20 09:16:59;;;;;;;;;;;;;;;30.64;51.67;101172.97;4979413;28;6925;-69
2023/08/20 09:19:28;;;;;;;;;;;;;;;31.02;50.96;101170.31;4939598;28;7005;-69
2023/08/20 09:21:55;;;;;;;;;;;;;;;31.43;49.66;101164.84;4946102;28;6816;-69
2023/08/20 09:24:54;;;;;;;;;;;;;;;31.93;48.70;101169.66;4961860;28;6820;-69
2023/08/20 09:27:20;;;;;;;;;;;;;;;32.46;47.56;101162.78;4947245;28;7898;-71
2023/08/20 09:29:54;;;;;;;;;;;;;;;33.07;46.32;101160.78;4955251;28;6803;-70
2023/08/20 09:32:22;;;;;;;;;;;;;;;33.82;44.87;101161.69;4943482;28;7049;-69
2023/08/20 09:34:49;;;;;;;;;;;;;;;34.40;42.85;101164.78;4974291;28;7261;-69
2023/08/20 09:37:18;;;;;;;;;;;;;;;34.41;42.56;101167.41;4944684;28;7361;-69
2023/08/20 09:39:44;;;;;;;;;;;;;;;34.49;42.71;101173.28;4957502;28;6788;-70
2023/08/20 09:42:10;;;;;;;;;;;;;;;34.79;41.39;101165.91;4946080;28;6796;-69
2023/08/20 09:44:38;;;;;;;;;;;;;;;35.09;40.46;101170.88;4958590;28;7100;-70
2023/08/20 09:47:07;;;;;;;;;;;;;;;35.47;40.39;101170.97;4937885;28;6868;-70
2023/08/20 09:49:40;;;;;;;;;;;;;;;35.95;39.35;101173.28;4960207;28;7285;-71
2023/08/20 09:52:08;;;;;;;;;;;;;;;36.38;38.03;101168.56;4964438;28;7872;-71
2023/08/20 09:55:02;;;;;;;;;;;;;;;36.30;37.58;101170.75;4959483;28;6812;-71
2023/08/20 09:57:34;;;;;;;;;;;;;;;35.56;38.05;101180.38;4975763;28;7035;-71
2023/08/20 10:00:00;;;;;;;;;;;;;;;35.25;39.35;101181.72;4935565;28;9481;-71
2023/08/20 10:02:26;;;;;;;;;;;;;;;35.34;39.30;101177.78;4958417;28;6877;-71
2023/08/20 10:04:53;;;;;;;;;;;;;;;35.87;38.24;101176.28;4942969;28;6784;-71
2023/08/20 10:07:19;;;;;;;;;;;;;;;36.42;37.46;101163.94;4943218;28;6820;-70
2023/08/20 10:09:46;;;;;;;;;;;;;;;37.00;36.46;101171.78;4977177;28;6792;-70
2023/08/20 10:12:13;;;;;;;;;;;;;;;37.53;35.42;101167.25;4961795;28;6849;-72
2023/08/20 10:14:39;;;;;;;;;;;;;;;37.86;35.07;101168.16;4941835;28;7071;-70
2023/08/20 10:17:09;;;;;;;;;;;;;;;38.12;34.70;101168.53;4943356;28;7210;-71
2023/08/20 10:19:38;;;;;;;;;;;;;;;38.33;34.29;101171.81;4977538;28;7003;-70
2023/08/20 10:22:06;;;;;;;;;;;;;;;38.65;33.69;101169.09;4944476;28;7458;-70
2023/08/20 10:24:48;;;;;;;;;;;;;;;39.15;33.16;101174.19;4957681;28;6820;-71
2023/08/20 10:27:27;;;;;;;;;;;;;;;39.80;32.70;101172.00;4960556;28;6812;-70
2023/08/20 10:29:55;;;;;;;;;;;;;;;40.38;32.30;101159.31;4943352;28;6989;-70
2023/08/20 10:32:46;;;;;;;;;;;;;;;41.00;30.88;101169.53;4961454;28;6820;-71
2023/08/20 10:35:12;;;;;;;;;;;;;;;41.02;30.71;101171.16;4957881;28;7671;-70
2023/08/20 10:37:40;;;;;;;;;;;;;;;40.23;31.02;101171.91;4946281;28;6796;-71
2023/08/20 10:40:06;;;;;;;;;;;;;;;39.10;32.09;101182.50;4964180;28;6823;-71
2023/08/20 10:42:32;;;;;;;;;;;;;;;38.01;32.66;101187.88;4946075;28;6972;-69
2023/08/20 10:45:08;;;;;;;;;;;;;;;37.00;33.89;101190.50;4975297;28;6852;-70
2023/08/20 10:47:41;;;;;;;;;;;;;;;36.55;34.63;101178.44;4945379;28;6816;-70
2023/08/20 10:50:08;;;;;;;;;;;;;;;36.28;34.91;101177.97;4944236;28;6980;-71
2023/08/20 10:52:38;;;;;;;;;;;;;;;36.10;35.55;101185.06;4962947;28;6820;-71
2023/08/20 10:55:04;;;;;;;;;;;;;;;36.15;35.19;101188.34;4947159;28;7217;-70
2023/08/20 10:57:34;;;;;;;;;;;;;;;36.08;36.09;101189.59;4946987;28;7065;-71
2023/08/20 11:00:06;;;;;;;;;;;;;;;35.84;36.07;101189.78;4944215;28;6804;-71
2023/08/20 11:02:33;;;;;;;;;;;;;;;35.38;35.97;101190.03;4946341;28;6816;-70
2023/08/20 11:04:59;;;;;;;;;;;;;;;35.54;36.68;101188.44;4948809;28;6984;-70
2023/08/20 11:07:26;;;;;;;;;;;;;;;36.06;35.69;101179.00;4965891;28;6780;-71
2023/08/20 11:09:53;;;;;;;;;;;;;;;36.18;35.12;101174.00;4942995;28;7036;-71
2023/08/20 11:12:20;;;;;;;;;;;;;;;36.48;34.95;101177.00;4942709;28;8591;-71
2023/08/20 11:14:46;;;;;;;;;;;;;;;36.75;35.19;101173.03;4962557;28;6873;-71
2023/08/20 11:17:11;;;;;;;;;;;;;;;37.33;34.45;101181.66;4948578;28;7015;-69
2023/08/20 11:19:37;;;;;;;;;;;;;;;37.99;34.18;101177.25;4950197;28;6897;-69
2023/08/20 11:22:03;;;;;;;;;;;;;;;37.90;33.48;101181.28;4947929;28;7051;-70
2023/08/20 11:24:29;;;;;;;;;;;;;;;37.25;33.86;101179.41;4980490;28;7030;-69
2023/08/20 11:26:55;;;;;;;;;;;;;;;36.51;34.31;101178.66;4968101;28;6804;-72
2023/08/20 11:29:21;;;;;;;;;;;;;;;36.32;35.15;101174.22;4945711;28;6992;-70
2023/08/20 11:31:47;;;;;;;;;;;;;;;36.55;35.19;101172.22;4948150;28;7439;-72
2023/08/20 11:34:13;;;;;;;;;;;;;;;37.13;35.01;101164.88;4964443;28;6820;-71
2023/08/20 11:36:40;;;;;;;;;;;;;;;37.73;34.05;101163.50;4942364;28;6972;-69
2023/08/20 11:39:07;;;;;;;;;;;;;;;38.03;33.35;101164.59;4948694;28;7031;-69
2023/08/20 11:41:35;;;;;;;;;;;;;;;37.58;33.11;101167.03;4949395;28;6988;-67
2023/08/20 11:44:01;;;;;;;;;;;;;;;36.89;33.44;101164.31;4946484;28;7068;-72
2023/08/20 11:46:26;;;;;;;;;;;;;;;36.36;34.20;101161.56;4946075;28;7022;-69
2023/08/20 11:49:08;;;;;;;;;;;;;;;36.36;34.20;101158.91;4966823;28;6788;-68
2023/08/20 11:51:45;;;;;;;;;;;;;;;36.78;34.24;101149.72;4978717;28;6891;-71
2023/08/20 11:54:13;;;;;;;;;;;;;;;37.45;33.24;101153.44;4945891;28;6832;-72
2023/08/20 11:56:47;;;;;;;;;;;;;;;38.09;32.59;101148.16;4946548;28;6880;-69
2023/08/20 11:59:13;;;;;;;;;;;;;;;38.18;31.92;101146.78;4947019;28;6879;-69
2023/08/20 12:01:39;;;;;;;;;;;;;;;37.52;32.18;101138.75;4980752;28;7273;-69
2023/08/20 12:04:07;;;;;;;;;;;;;;;37.20;33.03;101138.72;4960456;28;6885;-70
2023/08/20 12:06:34;;;;;;;;;;;;;;;37.56;33.05;101134.16;4964367;28;7301;-70
2023/08/20 12:09:01;;;;;;;;;;;;;;;38.17;32.02;101134.38;4963035;28;7257;-70
2023/08/20 12:11:30;;;;;;;;;;;;;;;38.59;31.49;101130.16;4945539;28;6864;-72
2023/08/20 12:13:56;;;;;;;;;;;;;;;38.60;31.24;101131.88;4932036;28;6978;-69
2023/08/20 12:16:23;;;;;;;;;;;;;;;38.15;32.17;101141.59;4980647;28;8854;-71
2023/08/20 12:18:48;;;;;;;;;;;;;;;37.95;32.44;101145.41;4977160;28;6879;-70
2023/08/20 12:21:14;;;;;;;;;;;;;;;37.78;32.79;101134.72;4948185;28;7259;-72
2023/08/20 12:23:39;;;;;;;;;;;;;;;38.24;32.96;101137.56;4948577;28;7308;-70
2023/08/20 12:26:05;;;;;;;;;;;;;;;38.98;32.15;101124.31;4964238;28;6856;-72
2023/08/20 12:28:30;;;;;;;;;;;;;;;39.47;30.97;101127.59;4937413;28;7088;-71
2023/08/20 12:30:56;;;;;;;;;;;;;;;39.40;30.80;101130.63;4963604;28;7254;-70
2023/08/20 12:33:21;;;;;;;;;;;;;;;39.48;30.11;101126.66;4941071;28;6967;-69
2023/08/20 12:35:47;;;;;;;;;;;;;;;39.01;30.48;101121.44;4941475;28;7540;-70
2023/08/20 12:38:12;;;;;;;;;;;;;;;38.50;30.60;101124.50;4944303;28;6961;-71
2023/08/20 12:40:38;;;;;;;;;;;;;;;38.47;31.02;101112.97;4978956;28;6946;-68
2023/08/20 12:43:03;;;;;;;;;;;;;;;38.50;30.84;101113.78;4961300;28;6788;-69
2023/08/20 12:45:29;;;;;;;;;;;;;;;38.79;30.96;101119.22;4965060;28;6796;-71
2023/08/20 12:47:55;;;;;;;;;;;;;;;39.20;30.64;101123.00;4961357;28;6800;-70